This is the latest recevied weather packets stored in our database for station/object JH7MHZ-13. If no packets are shown the sender has not sent any weather packets the latest 10 day(s).
| Time | Temp. | Humidity | Pressure | Rain* | Wind** | Luminosity | Snow |
|---|---|---|---|---|---|---|---|
| 1777680427 | 13.33° C | 85% | 977.3 hPa | 0 mm | - | - | - |
| 1777676826 | 12.78° C | 94% | 976.8 hPa | 0 mm | - | - | - |
| 1777673226 | 11.67° C | 97% | 974.7 hPa | 0 mm | - | - | - |
| 1777669625 | 11.11° C | 98% | 972.5 hPa | 0 mm | - | - | - |
| 1777666024 | 11.11° C | 98% | 970.2 hPa | 2.79 mm | - | - | - |
| 1777662424 | 11.67° C | 98% | 968 hPa | 0 mm | - | - | - |
| 1777658824 | 12.22° C | 98% | 967.1 hPa | 0 mm | - | - | - |
| 1777655222 | 12.22° C | 98% | 967.1 hPa | 0 mm | - | - | - |
| 1777651622 | 12.22° C | 98% | 967.7 hPa | 0 mm | - | - | - |
| 1777648021 | 12.78° C | 98% | 968.8 hPa | 0 mm | - | - | - |
| 1777644421 | 13.33° C | 98% | 969.3 hPa | 0 mm | - | - | - |
| 1777640820 | 13.33° C | 98% | 969.9 hPa | 0 mm | - | - | - |
| 1777637221 | 13.89° C | 97% | 970.3 hPa | 0 mm | - | - | - |
| 1777633619 | 13.89° C | 96% | 970.4 hPa | 5.84 mm | - | - | - |
| 1777630018 | 16.11° C | 87% | 971.4 hPa | 0 mm | - | - | - |
| 1777626418 | 17.22° C | 83% | 972.7 hPa | 0 mm | - | - | - |
| 1777622817 | 18.89° C | 74% | 973.3 hPa | 0 mm | - | - | - |
| 1777619218 | 18.89° C | 72% | 975.2 hPa | 0 mm | - | - | - |
| 1777615617 | 17.78° C | 74% | 976.8 hPa | 0 mm | - | - | - |
| 1777612015 | 16.67° C | 77% | 978.8 hPa | 0 mm | - | - | - |
| 1777608416 | 17.22° C | 71% | 980.9 hPa | 0 mm | - | - | - |
| 1777604816 | 16.11° C | 78% | 983.3 hPa | 0 mm | - | - | - |
| 1777601215 | 14.44° C | 91% | 984.7 hPa | 0 mm | - | - | - |
| 1777594014 | 16.11° C | 76% | 987.9 hPa | 0 mm | - | - | - |
| 1777590412 | 15.56° C | 73% | 989.3 hPa | 0 mm | - | - | - |
* Rain latest hour (hover to see other rain measurements)
** Current wind speed in m/s (hover to see current wind gust speed)